sensor_id;sensor_type;location;lat;lon;timestamp;P1;durP1;ratioP1;P2;durP2;ratioP2
42018;SDS011;27703;51.980;5.848;2023-04-06T00:00:30;4.32;;;2.40;;
42018;SDS011;27703;51.980;5.848;2023-04-06T00:02:56;5.68;;;2.70;;
42018;SDS011;27703;51.980;5.848;2023-04-06T00:05:21;9.73;;;3.17;;
42018;SDS011;27703;51.980;5.848;2023-04-06T00:07:47;6.43;;;3.03;;
42018;SDS011;27703;51.980;5.848;2023-04-06T00:10:13;6.70;;;3.13;;
42018;SDS011;27703;51.980;5.848;2023-04-06T00:12:39;5.15;;;2.75;;
42018;SDS011;27703;51.980;5.848;2023-04-06T00:15:05;5.22;;;1.60;;
42018;SDS011;27703;51.980;5.848;2023-04-06T00:17:31;3.25;;;2.30;;
42018;SDS011;27703;51.980;5.848;2023-04-06T00:19:56;6.78;;;2.70;;
42018;SDS011;27703;51.980;5.848;2023-04-06T00:22:22;4.85;;;2.15;;
42018;SDS011;27703;51.980;5.848;2023-04-06T00:24:48;6.50;;;2.78;;
42018;SDS011;27703;51.980;5.848;2023-04-06T00:27:13;4.85;;;2.38;;
42018;SDS011;27703;51.980;5.848;2023-04-06T00:29:39;5.30;;;2.03;;
42018;SDS011;27703;51.980;5.848;2023-04-06T00:32:05;5.03;;;2.40;;
42018;SDS011;27703;51.980;5.848;2023-04-06T00:34:30;3.78;;;2.45;;
42018;SDS011;27703;51.980;5.848;2023-04-06T00:36:56;5.05;;;2.80;;
42018;SDS011;27703;51.980;5.848;2023-04-06T00:39:22;4.70;;;2.70;;
42018;SDS011;27703;51.980;5.848;2023-04-06T00:41:49;5.88;;;2.70;;
42018;SDS011;27703;51.980;5.848;2023-04-06T00:44:17;6.38;;;3.55;;
42018;SDS011;27703;51.980;5.848;2023-04-06T00:46:43;6.22;;;3.15;;
42018;SDS011;27703;51.980;5.848;2023-04-06T00:49:10;6.50;;;3.70;;
42018;SDS011;27703;51.980;5.848;2023-04-06T00:51:35;6.60;;;3.40;;
42018;SDS011;27703;51.980;5.848;2023-04-06T00:54:01;6.78;;;4.07;;
42018;SDS011;27703;51.980;5.848;2023-04-06T00:56:26;6.70;;;3.28;;
42018;SDS011;27703;51.980;5.848;2023-04-06T00:58:52;5.68;;;3.08;;
42018;SDS011;27703;51.980;5.848;2023-04-06T01:01:18;4.60;;;3.28;;
42018;SDS011;27703;51.980;5.848;2023-04-06T01:03:44;5.03;;;3.00;;
42018;SDS011;27703;51.980;5.848;2023-04-06T01:06:13;5.10;;;3.08;;
42018;SDS011;27703;51.980;5.848;2023-04-06T01:08:39;6.00;;;2.83;;
42018;SDS011;27703;51.980;5.848;2023-04-06T01:11:05;5.28;;;2.85;;
42018;SDS011;27703;51.980;5.848;2023-04-06T01:13:30;4.57;;;2.90;;
42018;SDS011;27703;51.980;5.848;2023-04-06T01:15:56;4.75;;;2.60;;
42018;SDS011;27703;51.980;5.848;2023-04-06T01:18:29;6.78;;;3.70;;
42018;SDS011;27703;51.980;5.848;2023-04-06T01:20:54;5.65;;;2.63;;
42018;SDS011;27703;51.980;5.848;2023-04-06T01:23:20;5.70;;;3.47;;
42018;SDS011;27703;51.980;5.848;2023-04-06T01:25:46;5.75;;;3.33;;
42018;SDS011;27703;51.980;5.848;2023-04-06T01:28:11;7.57;;;3.28;;
42018;SDS011;27703;51.980;5.848;2023-04-06T01:30:37;7.40;;;3.67;;
42018;SDS011;27703;51.980;5.848;2023-04-06T01:33:02;6.32;;;2.95;;
42018;SDS011;27703;51.980;5.848;2023-04-06T01:35:28;5.97;;;3.33;;
42018;SDS011;27703;51.980;5.848;2023-04-06T01:37:55;6.43;;;3.55;;
42018;SDS011;27703;51.980;5.848;2023-04-06T01:40:20;6.53;;;3.63;;
42018;SDS011;27703;51.980;5.848;2023-04-06T01:42:46;8.13;;;4.30;;
42018;SDS011;27703;51.980;5.848;2023-04-06T01:45:12;9.40;;;4.22;;
42018;SDS011;27703;51.980;5.848;2023-04-06T01:47:37;6.93;;;4.03;;
42018;SDS011;27703;51.980;5.848;2023-04-06T01:50:03;6.85;;;3.97;;
42018;SDS011;27703;51.980;5.848;2023-04-06T01:52:31;8.25;;;4.65;;
42018;SDS011;27703;51.980;5.848;2023-04-06T01:54:57;6.72;;;4.32;;
42018;SDS011;27703;51.980;5.848;2023-04-06T01:57:23;7.00;;;4.85;;
42018;SDS011;27703;51.980;5.848;2023-04-06T01:59:48;6.47;;;3.63;;
42018;SDS011;27703;51.980;5.848;2023-04-06T02:02:14;9.20;;;3.97;;
42018;SDS011;27703;51.980;5.848;2023-04-06T02:04:40;7.30;;;4.32;;
42018;SDS011;27703;51.980;5.848;2023-04-06T02:07:05;7.38;;;4.20;;
42018;SDS011;27703;51.980;5.848;2023-04-06T02:09:31;5.78;;;3.53;;
42018;SDS011;27703;51.980;5.848;2023-04-06T02:11:56;6.93;;;3.92;;
42018;SDS011;27703;51.980;5.848;2023-04-06T02:14:24;4.65;;;2.67;;
42018;SDS011;27703;51.980;5.848;2023-04-06T02:16:50;5.88;;;3.42;;
42018;SDS011;27703;51.980;5.848;2023-04-06T02:19:16;6.07;;;3.72;;
42018;SDS011;27703;51.980;5.848;2023-04-06T02:21:42;6.72;;;3.83;;
42018;SDS011;27703;51.980;5.848;2023-04-06T02:24:07;6.22;;;3.40;;
42018;SDS011;27703;51.980;5.848;2023-04-06T02:26:33;5.60;;;3.85;;
42018;SDS011;27703;51.980;5.848;2023-04-06T02:28:58;7.80;;;4.70;;
42018;SDS011;27703;51.980;5.848;2023-04-06T02:31:24;6.63;;;4.10;;
42018;SDS011;27703;51.980;5.848;2023-04-06T02:33:49;8.77;;;4.20;;
42018;SDS011;27703;51.980;5.848;2023-04-06T02:36:15;7.80;;;4.43;;
42018;SDS011;27703;51.980;5.848;2023-04-06T02:38:41;7.95;;;3.95;;
42018;SDS011;27703;51.980;5.848;2023-04-06T02:41:06;6.85;;;4.05;;
42018;SDS011;27703;51.980;5.848;2023-04-06T02:43:32;8.50;;;4.13;;
42018;SDS011;27703;51.980;5.848;2023-04-06T02:45:58;7.93;;;4.65;;
42018;SDS011;27703;51.980;5.848;2023-04-06T02:48:23;7.50;;;3.75;;
42018;SDS011;27703;51.980;5.848;2023-04-06T02:50:49;8.35;;;4.10;;
42018;SDS011;27703;51.980;5.848;2023-04-06T02:53:15;5.60;;;3.03;;
42018;SDS011;27703;51.980;5.848;2023-04-06T02:55:40;8.70;;;4.40;;
42018;SDS011;27703;51.980;5.848;2023-04-06T02:58:06;6.90;;;4.70;;
42018;SDS011;27703;51.980;5.848;2023-04-06T03:00:31;9.75;;;4.15;;
42018;SDS011;27703;51.980;5.848;2023-04-06T03:02:57;6.82;;;4.00;;
42018;SDS011;27703;51.980;5.848;2023-04-06T03:05:22;6.45;;;4.03;;
42018;SDS011;27703;51.980;5.848;2023-04-06T03:07:48;5.70;;;3.55;;
42018;SDS011;27703;51.980;5.848;2023-04-06T03:10:13;7.30;;;4.30;;
42018;SDS011;27703;51.980;5.848;2023-04-06T03:12:39;5.28;;;3.80;;
42018;SDS011;27703;51.980;5.848;2023-04-06T03:15:06;7.90;;;4.28;;
42018;SDS011;27703;51.980;5.848;2023-04-06T03:17:32;6.72;;;3.92;;
42018;SDS011;27703;51.980;5.848;2023-04-06T03:19:58;8.23;;;4.03;;
42018;SDS011;27703;51.980;5.848;2023-04-06T03:22:24;6.70;;;3.95;;
42018;SDS011;27703;51.980;5.848;2023-04-06T03:24:49;6.47;;;3.25;;
42018;SDS011;27703;51.980;5.848;2023-04-06T03:27:15;7.50;;;4.13;;
42018;SDS011;27703;51.980;5.848;2023-04-06T03:29:40;8.52;;;4.22;;
42018;SDS011;27703;51.980;5.848;2023-04-06T03:32:06;7.32;;;3.92;;
42018;SDS011;27703;51.980;5.848;2023-04-06T03:34:31;7.45;;;4.05;;
42018;SDS011;27703;51.980;5.848;2023-04-06T03:36:57;7.38;;;3.63;;
42018;SDS011;27703;51.980;5.848;2023-04-06T03:39:22;6.57;;;3.80;;
42018;SDS011;27703;51.980;5.848;2023-04-06T03:41:48;5.90;;;4.22;;
42018;SDS011;27703;51.980;5.848;2023-04-06T03:44:14;9.32;;;4.53;;
42018;SDS011;27703;51.980;5.848;2023-04-06T03:46:39;8.27;;;4.63;;
42018;SDS011;27703;51.980;5.848;2023-04-06T03:49:05;6.95;;;4.47;;
42018;SDS011;27703;51.980;5.848;2023-04-06T03:51:30;7.07;;;3.72;;
42018;SDS011;27703;51.980;5.848;2023-04-06T03:53:56;5.85;;;3.58;;
42018;SDS011;27703;51.980;5.848;2023-04-06T03:56:21;5.32;;;3.55;;
42018;SDS011;27703;51.980;5.848;2023-04-06T03:58:47;8.32;;;5.15;;
42018;SDS011;27703;51.980;5.848;2023-04-06T04:01:15;6.18;;;3.65;;
42018;SDS011;27703;51.980;5.848;2023-04-06T04:03:42;6.97;;;4.03;;
42018;SDS011;27703;51.980;5.848;2023-04-06T04:06:08;7.40;;;3.83;;
42018;SDS011;27703;51.980;5.848;2023-04-06T04:08:33;7.38;;;3.72;;
42018;SDS011;27703;51.980;5.848;2023-04-06T04:11:00;7.95;;;4.70;;
42018;SDS011;27703;51.980;5.848;2023-04-06T04:13:26;6.88;;;4.57;;
42018;SDS011;27703;51.980;5.848;2023-04-06T04:15:51;6.05;;;4.43;;
42018;SDS011;27703;51.980;5.848;2023-04-06T04:18:17;6.35;;;3.58;;
42018;SDS011;27703;51.980;5.848;2023-04-06T04:20:43;6.60;;;4.35;;
42018;SDS011;27703;51.980;5.848;2023-04-06T04:23:09;13.18;;;4.97;;
42018;SDS011;27703;51.980;5.848;2023-04-06T04:25:35;7.07;;;4.45;;
42018;SDS011;27703;51.980;5.848;2023-04-06T04:28:00;8.48;;;5.50;;
42018;SDS011;27703;51.980;5.848;2023-04-06T04:30:26;8.93;;;4.20;;
42018;SDS011;27703;51.980;5.848;2023-04-06T04:32:52;8.23;;;5.10;;
42018;SDS011;27703;51.980;5.848;2023-04-06T04:35:17;8.25;;;4.28;;
42018;SDS011;27703;51.980;5.848;2023-04-06T04:37:43;6.63;;;4.13;;
42018;SDS011;27703;51.980;5.848;2023-04-06T04:40:09;8.68;;;4.90;;
42018;SDS011;27703;51.980;5.848;2023-04-06T04:42:35;5.50;;;3.50;;
42018;SDS011;27703;51.980;5.848;2023-04-06T04:45:01;9.05;;;5.70;;
42018;SDS011;27703;51.980;5.848;2023-04-06T04:47:26;9.02;;;5.72;;
42018;SDS011;27703;51.980;5.848;2023-04-06T04:49:52;12.35;;;6.40;;
42018;SDS011;27703;51.980;5.848;2023-04-06T04:52:17;8.65;;;4.95;;
42018;SDS011;27703;51.980;5.848;2023-04-06T04:54:43;11.95;;;5.72;;
42018;SDS011;27703;51.980;5.848;2023-04-06T04:57:09;11.07;;;6.03;;
42018;SDS011;27703;51.980;5.848;2023-04-06T04:59:34;10.52;;;5.78;;
42018;SDS011;27703;51.980;5.848;2023-04-06T05:02:00;11.18;;;6.47;;
42018;SDS011;27703;51.980;5.848;2023-04-06T05:04:26;8.68;;;4.82;;
42018;SDS011;27703;51.980;5.848;2023-04-06T05:07:01;7.32;;;4.35;;
42018;SDS011;27703;51.980;5.848;2023-04-06T05:09:31;9.52;;;4.85;;
42018;SDS011;27703;51.980;5.848;2023-04-06T05:11:58;9.02;;;5.68;;
42018;SDS011;27703;51.980;5.848;2023-04-06T05:14:25;9.00;;;5.45;;
42018;SDS011;27703;51.980;5.848;2023-04-06T05:16:51;8.75;;;5.07;;
42018;SDS011;27703;51.980;5.848;2023-04-06T05:19:17;9.77;;;5.35;;
42018;SDS011;27703;51.980;5.848;2023-04-06T05:21:42;11.00;;;5.47;;
42018;SDS011;27703;51.980;5.848;2023-04-06T05:24:08;9.32;;;6.05;;
42018;SDS011;27703;51.980;5.848;2023-04-06T05:26:34;11.75;;;6.80;;
42018;SDS011;27703;51.980;5.848;2023-04-06T05:28:59;10.15;;;5.57;;
42018;SDS011;27703;51.980;5.848;2023-04-06T05:31:25;10.80;;;5.20;;
42018;SDS011;27703;51.980;5.848;2023-04-06T05:33:51;11.15;;;5.82;;
42018;SDS011;27703;51.980;5.848;2023-04-06T05:36:16;10.20;;;6.22;;
42018;SDS011;27703;51.980;5.848;2023-04-06T05:38:42;10.70;;;5.70;;
42018;SDS011;27703;51.980;5.848;2023-04-06T05:41:07;9.23;;;4.82;;
42018;SDS011;27703;51.980;5.848;2023-04-06T05:43:33;9.38;;;6.22;;
42018;SDS011;27703;51.980;5.848;2023-04-06T05:45:59;13.18;;;6.93;;
42018;SDS011;27703;51.980;5.848;2023-04-06T05:48:24;17.40;;;7.35;;
42018;SDS011;27703;51.980;5.848;2023-04-06T05:50:51;11.25;;;7.60;;
42018;SDS011;27703;51.980;5.848;2023-04-06T05:53:16;10.88;;;6.13;;
42018;SDS011;27703;51.980;5.848;2023-04-06T05:55:42;10.77;;;6.40;;
42018;SDS011;27703;51.980;5.848;2023-04-06T05:58:07;10.55;;;6.82;;
42018;SDS011;27703;51.980;5.848;2023-04-06T06:00:33;10.77;;;7.05;;
42018;SDS011;27703;51.980;5.848;2023-04-06T06:02:59;11.32;;;6.47;;
42018;SDS011;27703;51.980;5.848;2023-04-06T06:05:25;13.23;;;7.40;;
42018;SDS011;27703;51.980;5.848;2023-04-06T06:07:50;14.40;;;7.43;;
42018;SDS011;27703;51.980;5.848;2023-04-06T06:10:16;15.13;;;8.00;;
42018;SDS011;27703;51.980;5.848;2023-04-06T06:12:42;14.23;;;7.53;;
42018;SDS011;27703;51.980;5.848;2023-04-06T06:15:08;11.45;;;6.30;;
42018;SDS011;27703;51.980;5.848;2023-04-06T06:17:34;9.48;;;6.28;;
42018;SDS011;27703;51.980;5.848;2023-04-06T06:19:59;12.43;;;6.20;;
42018;SDS011;27703;51.980;5.848;2023-04-06T06:22:25;14.80;;;7.55;;
42018;SDS011;27703;51.980;5.848;2023-04-06T06:24:50;14.93;;;8.00;;
42018;SDS011;27703;51.980;5.848;2023-04-06T06:27:16;11.88;;;7.47;;
42018;SDS011;27703;51.980;5.848;2023-04-06T06:29:41;9.20;;;6.47;;
42018;SDS011;27703;51.980;5.848;2023-04-06T06:32:07;10.85;;;5.88;;
42018;SDS011;27703;51.980;5.848;2023-04-06T06:34:36;15.10;;;8.35;;
42018;SDS011;27703;51.980;5.848;2023-04-06T06:37:01;14.60;;;7.72;;
42018;SDS011;27703;51.980;5.848;2023-04-06T06:39:27;11.07;;;7.40;;
42018;SDS011;27703;51.980;5.848;2023-04-06T06:41:53;14.75;;;8.50;;
42018;SDS011;27703;51.980;5.848;2023-04-06T06:44:20;16.90;;;9.68;;
42018;SDS011;27703;51.980;5.848;2023-04-06T06:46:46;16.63;;;10.02;;
42018;SDS011;27703;51.980;5.848;2023-04-06T06:49:12;14.98;;;9.23;;
42018;SDS011;27703;51.980;5.848;2023-04-06T06:51:39;18.92;;;9.95;;
42018;SDS011;27703;51.980;5.848;2023-04-06T06:54:05;14.93;;;9.00;;
42018;SDS011;27703;51.980;5.848;2023-04-06T06:56:31;15.50;;;9.60;;
42018;SDS011;27703;51.980;5.848;2023-04-06T06:58:56;16.15;;;9.38;;
42018;SDS011;27703;51.980;5.848;2023-04-06T07:01:22;18.15;;;10.15;;
42018;SDS011;27703;51.980;5.848;2023-04-06T07:03:47;17.30;;;9.15;;
42018;SDS011;27703;51.980;5.848;2023-04-06T07:06:13;13.18;;;7.80;;
42018;SDS011;27703;51.980;5.848;2023-04-06T07:08:38;16.35;;;9.60;;
42018;SDS011;27703;51.980;5.848;2023-04-06T07:11:04;16.13;;;9.30;;
42018;SDS011;27703;51.980;5.848;2023-04-06T07:13:29;20.58;;;10.23;;
42018;SDS011;27703;51.980;5.848;2023-04-06T07:15:55;14.75;;;9.50;;
42018;SDS011;27703;51.980;5.848;2023-04-06T07:18:21;19.23;;;9.55;;
42018;SDS011;27703;51.980;5.848;2023-04-06T07:20:47;19.85;;;10.35;;
42018;SDS011;27703;51.980;5.848;2023-04-06T07:23:12;14.40;;;8.75;;
42018;SDS011;27703;51.980;5.848;2023-04-06T07:25:38;14.77;;;9.35;;
42018;SDS011;27703;51.980;5.848;2023-04-06T07:28:04;19.35;;;10.30;;
42018;SDS011;27703;51.980;5.848;2023-04-06T07:30:29;13.30;;;8.40;;
42018;SDS011;27703;51.980;5.848;2023-04-06T07:32:55;15.80;;;8.95;;
42018;SDS011;27703;51.980;5.848;2023-04-06T07:35:21;14.20;;;8.07;;
42018;SDS011;27703;51.980;5.848;2023-04-06T07:37:47;16.98;;;9.63;;
42018;SDS011;27703;51.980;5.848;2023-04-06T07:40:13;14.30;;;8.75;;
42018;SDS011;27703;51.980;5.848;2023-04-06T07:42:39;18.73;;;10.20;;
42018;SDS011;27703;51.980;5.848;2023-04-06T07:45:05;15.98;;;8.75;;
42018;SDS011;27703;51.980;5.848;2023-04-06T07:47:30;14.85;;;8.85;;
42018;SDS011;27703;51.980;5.848;2023-04-06T07:49:56;14.32;;;8.40;;
42018;SDS011;27703;51.980;5.848;2023-04-06T07:52:22;16.20;;;8.50;;
42018;SDS011;27703;51.980;5.848;2023-04-06T07:54:47;15.20;;;8.07;;
42018;SDS011;27703;51.980;5.848;2023-04-06T07:57:14;14.63;;;8.52;;
42018;SDS011;27703;51.980;5.848;2023-04-06T07:59:39;13.50;;;7.82;;
42018;SDS011;27703;51.980;5.848;2023-04-06T08:02:05;16.23;;;8.60;;
42018;SDS011;27703;51.980;5.848;2023-04-06T08:04:31;15.65;;;7.43;;
42018;SDS011;27703;51.980;5.848;2023-04-06T08:06:56;15.88;;;8.25;;
42018;SDS011;27703;51.980;5.848;2023-04-06T08:09:22;14.50;;;8.75;;
42018;SDS011;27703;51.980;5.848;2023-04-06T08:11:48;17.23;;;8.65;;
42018;SDS011;27703;51.980;5.848;2023-04-06T08:14:14;15.88;;;8.55;;
42018;SDS011;27703;51.980;5.848;2023-04-06T08:16:40;16.02;;;8.07;;
42018;SDS011;27703;51.980;5.848;2023-04-06T08:19:06;16.40;;;9.02;;
42018;SDS011;27703;51.980;5.848;2023-04-06T08:21:34;16.75;;;9.13;;
42018;SDS011;27703;51.980;5.848;2023-04-06T08:24:00;18.48;;;7.82;;
42018;SDS011;27703;51.980;5.848;2023-04-06T08:26:26;16.23;;;9.63;;
42018;SDS011;27703;51.980;5.848;2023-04-06T08:28:52;10.05;;;7.20;;
42018;SDS011;27703;51.980;5.848;2023-04-06T08:31:17;11.40;;;7.47;;
42018;SDS011;27703;51.980;5.848;2023-04-06T08:33:43;18.40;;;9.65;;
42018;SDS011;27703;51.980;5.848;2023-04-06T08:36:12;14.65;;;8.63;;
42018;SDS011;27703;51.980;5.848;2023-04-06T08:38:39;17.42;;;9.23;;
42018;SDS011;27703;51.980;5.848;2023-04-06T08:41:12;18.70;;;10.00;;
42018;SDS011;27703;51.980;5.848;2023-04-06T08:43:48;17.65;;;9.23;;
42018;SDS011;27703;51.980;5.848;2023-04-06T08:46:17;18.48;;;8.77;;
42018;SDS011;27703;51.980;5.848;2023-04-06T08:48:43;16.88;;;9.15;;
42018;SDS011;27703;51.980;5.848;2023-04-06T08:51:10;13.30;;;6.97;;
42018;SDS011;27703;51.980;5.848;2023-04-06T08:53:36;16.88;;;8.15;;
42018;SDS011;27703;51.980;5.848;2023-04-06T08:56:02;14.05;;;7.72;;
42018;SDS011;27703;51.980;5.848;2023-04-06T08:58:37;14.68;;;8.88;;
42018;SDS011;27703;51.980;5.848;2023-04-06T09:01:08;14.90;;;8.85;;
42018;SDS011;27703;51.980;5.848;2023-04-06T09:03:37;11.48;;;7.47;;
42018;SDS011;27703;51.980;5.848;2023-04-06T09:06:04;15.32;;;9.07;;
42018;SDS011;27703;51.980;5.848;2023-04-06T09:08:32;13.35;;;8.52;;
42018;SDS011;27703;51.980;5.848;2023-04-06T09:11:01;12.00;;;7.35;;
42018;SDS011;27703;51.980;5.848;2023-04-06T09:13:28;13.93;;;8.50;;
42018;SDS011;27703;51.980;5.848;2023-04-06T09:16:03;14.25;;;8.90;;
42018;SDS011;27703;51.980;5.848;2023-04-06T09:18:32;21.50;;;11.93;;
42018;SDS011;27703;51.980;5.848;2023-04-06T09:21:02;19.02;;;12.02;;
42018;SDS011;27703;51.980;5.848;2023-04-06T09:23:30;21.10;;;11.85;;
42018;SDS011;27703;51.980;5.848;2023-04-06T09:26:05;19.05;;;12.05;;
42018;SDS011;27703;51.980;5.848;2023-04-06T09:28:45;22.48;;;12.18;;
42018;SDS011;27703;51.980;5.848;2023-04-06T09:31:16;26.50;;;13.60;;
42018;SDS011;27703;51.980;5.848;2023-04-06T09:33:47;24.92;;;13.27;;
42018;SDS011;27703;51.980;5.848;2023-04-06T09:36:12;21.20;;;12.63;;
42018;SDS011;27703;51.980;5.848;2023-04-06T09:38:57;18.70;;;11.70;;
42018;SDS011;27703;51.980;5.848;2023-04-06T09:41:24;24.70;;;12.60;;
42018;SDS011;27703;51.980;5.848;2023-04-06T09:43:51;25.75;;;13.10;;
42018;SDS011;27703;51.980;5.848;2023-04-06T09:46:26;27.50;;;15.73;;
42018;SDS011;27703;51.980;5.848;2023-04-06T09:48:52;23.02;;;13.70;;
42018;SDS011;27703;51.980;5.848;2023-04-06T09:51:18;26.00;;;14.90;;
42018;SDS011;27703;51.980;5.848;2023-04-06T09:53:44;19.40;;;12.02;;
42018;SDS011;27703;51.980;5.848;2023-04-06T09:56:17;25.35;;;14.93;;
42018;SDS011;27703;51.980;5.848;2023-04-06T09:58:48;23.88;;;13.65;;
42018;SDS011;27703;51.980;5.848;2023-04-06T10:01:18;25.10;;;14.93;;
42018;SDS011;27703;51.980;5.848;2023-04-06T10:03:56;24.77;;;13.48;;
42018;SDS011;27703;51.980;5.848;2023-04-06T10:06:46;21.77;;;12.93;;
42018;SDS011;27703;51.980;5.848;2023-04-06T10:09:17;23.13;;;13.90;;
42018;SDS011;27703;51.980;5.848;2023-04-06T10:11:46;26.00;;;14.15;;
42018;SDS011;27703;51.980;5.848;2023-04-06T10:14:13;24.10;;;13.30;;
42018;SDS011;27703;51.980;5.848;2023-04-06T10:16:40;22.75;;;13.32;;
42018;SDS011;27703;51.980;5.848;2023-04-06T10:19:16;23.55;;;13.95;;
42018;SDS011;27703;51.980;5.848;2023-04-06T10:21:48;26.42;;;13.30;;
42018;SDS011;27703;51.980;5.848;2023-04-06T10:24:18;21.55;;;14.27;;
42018;SDS011;27703;51.980;5.848;2023-04-06T10:26:43;19.75;;;12.95;;
42018;SDS011;27703;51.980;5.848;2023-04-06T10:29:22;25.45;;;13.23;;
42018;SDS011;27703;51.980;5.848;2023-04-06T10:31:48;21.63;;;13.05;;
42018;SDS011;27703;51.980;5.848;2023-04-06T10:34:13;19.23;;;12.23;;
42018;SDS011;27703;51.980;5.848;2023-04-06T10:36:39;21.15;;;12.35;;
42018;SDS011;27703;51.980;5.848;2023-04-06T10:39:05;23.33;;;12.85;;
42018;SDS011;27703;51.980;5.848;2023-04-06T10:41:35;23.20;;;11.48;;
42018;SDS011;27703;51.980;5.848;2023-04-06T10:44:05;23.60;;;11.68;;
42018;SDS011;27703;51.980;5.848;2023-04-06T10:46:32;22.00;;;13.45;;
42018;SDS011;27703;51.980;5.848;2023-04-06T10:49:08;28.73;;;14.20;;
42018;SDS011;27703;51.980;5.848;2023-04-06T10:51:37;20.10;;;11.52;;
42018;SDS011;27703;51.980;5.848;2023-04-06T10:54:03;23.00;;;12.77;;
42018;SDS011;27703;51.980;5.848;2023-04-06T10:56:30;19.55;;;13.05;;
42018;SDS011;27703;51.980;5.848;2023-04-06T10:59:01;20.95;;;12.75;;
42018;SDS011;27703;51.980;5.848;2023-04-06T11:01:27;22.88;;;12.55;;
42018;SDS011;27703;51.980;5.848;2023-04-06T11:03:56;17.17;;;11.90;;
42018;SDS011;27703;51.980;5.848;2023-04-06T11:06:25;17.38;;;11.32;;
42018;SDS011;27703;51.980;5.848;2023-04-06T11:08:56;18.30;;;11.38;;
42018;SDS011;27703;51.980;5.848;2023-04-06T11:11:23;17.02;;;11.38;;
42018;SDS011;27703;51.980;5.848;2023-04-06T11:13:57;17.25;;;11.70;;
42018;SDS011;27703;51.980;5.848;2023-04-06T11:16:28;16.48;;;11.25;;
42018;SDS011;27703;51.980;5.848;2023-04-06T11:18:55;17.55;;;11.15;;
42018;SDS011;27703;51.980;5.848;2023-04-06T11:21:37;16.50;;;11.05;;
42018;SDS011;27703;51.980;5.848;2023-04-06T11:26:39;20.98;;;12.73;;
42018;SDS011;27703;51.980;5.848;2023-04-06T11:29:06;15.77;;;11.88;;
42018;SDS011;27703;51.980;5.848;2023-04-06T11:31:42;13.63;;;9.38;;
42018;SDS011;27703;51.980;5.848;2023-04-06T11:34:23;14.65;;;10.40;;
42018;SDS011;27703;51.980;5.848;2023-04-06T11:37:00;15.77;;;10.05;;
42018;SDS011;27703;51.980;5.848;2023-04-06T11:39:28;13.80;;;9.05;;
42018;SDS011;27703;51.980;5.848;2023-04-06T11:41:58;17.75;;;11.10;;
42018;SDS011;27703;51.980;5.848;2023-04-06T11:46:58;16.55;;;9.80;;
42018;SDS011;27703;51.980;5.848;2023-04-06T11:49:30;12.80;;;8.95;;
42018;SDS011;27703;51.980;5.848;2023-04-06T11:51:57;13.70;;;9.30;;
42018;SDS011;27703;51.980;5.848;2023-04-06T11:54:33;13.43;;;9.57;;
42018;SDS011;27703;51.980;5.848;2023-04-06T11:57:05;12.75;;;8.93;;
42018;SDS011;27703;51.980;5.848;2023-04-06T11:59:31;12.90;;;7.75;;
42018;SDS011;27703;51.980;5.848;2023-04-06T12:01:57;13.27;;;8.68;;
42018;SDS011;27703;51.980;5.848;2023-04-06T12:04:23;11.35;;;6.60;;
42018;SDS011;27703;51.980;5.848;2023-04-06T12:06:49;10.13;;;6.47;;
42018;SDS011;27703;51.980;5.848;2023-04-06T12:09:15;11.38;;;6.75;;
42018;SDS011;27703;51.980;5.848;2023-04-06T12:11:42;10.63;;;7.38;;
42018;SDS011;27703;51.980;5.848;2023-04-06T12:14:08;8.77;;;5.65;;
42018;SDS011;27703;51.980;5.848;2023-04-06T12:16:34;13.07;;;6.65;;
42018;SDS011;27703;51.980;5.848;2023-04-06T12:19:00;11.13;;;6.28;;
42018;SDS011;27703;51.980;5.848;2023-04-06T12:21:29;9.93;;;5.97;;
42018;SDS011;27703;51.980;5.848;2023-04-06T12:23:58;13.73;;;6.63;;
42018;SDS011;27703;51.980;5.848;2023-04-06T12:26:24;8.48;;;6.22;;
42018;SDS011;27703;51.980;5.848;2023-04-06T12:28:50;10.15;;;6.85;;
42018;SDS011;27703;51.980;5.848;2023-04-06T12:31:16;10.88;;;6.18;;
42018;SDS011;27703;51.980;5.848;2023-04-06T12:33:43;10.63;;;6.82;;
42018;SDS011;27703;51.980;5.848;2023-04-06T12:36:12;8.90;;;5.57;;
42018;SDS011;27703;51.980;5.848;2023-04-06T12:38:38;7.55;;;5.03;;
42018;SDS011;27703;51.980;5.848;2023-04-06T12:41:05;7.97;;;4.57;;
42018;SDS011;27703;51.980;5.848;2023-04-06T12:43:31;8.32;;;4.93;;
42018;SDS011;27703;51.980;5.848;2023-04-06T12:45:57;10.45;;;5.55;;
42018;SDS011;27703;51.980;5.848;2023-04-06T12:48:22;8.70;;;4.57;;
42018;SDS011;27703;51.980;5.848;2023-04-06T12:50:55;6.60;;;4.13;;
42018;SDS011;27703;51.980;5.848;2023-04-06T12:53:22;5.63;;;3.50;;
42018;SDS011;27703;51.980;5.848;2023-04-06T12:55:48;7.55;;;4.72;;
42018;SDS011;27703;51.980;5.848;2023-04-06T12:58:14;9.20;;;3.67;;
42018;SDS011;27703;51.980;5.848;2023-04-06T13:00:40;7.65;;;4.13;;
42018;SDS011;27703;51.980;5.848;2023-04-06T13:03:05;5.25;;;3.80;;
42018;SDS011;27703;51.980;5.848;2023-04-06T13:05:31;6.38;;;4.18;;
42018;SDS011;27703;51.980;5.848;2023-04-06T13:07:56;7.85;;;3.97;;
42018;SDS011;27703;51.980;5.848;2023-04-06T13:10:22;8.55;;;5.07;;
42018;SDS011;27703;51.980;5.848;2023-04-06T13:12:48;8.75;;;4.78;;
42018;SDS011;27703;51.980;5.848;2023-04-06T13:15:13;7.28;;;4.43;;
42018;SDS011;27703;51.980;5.848;2023-04-06T13:17:39;6.65;;;4.18;;
42018;SDS011;27703;51.980;5.848;2023-04-06T13:20:05;9.35;;;5.43;;
42018;SDS011;27703;51.980;5.848;2023-04-06T13:22:31;6.70;;;4.25;;
42018;SDS011;27703;51.980;5.848;2023-04-06T13:24:57;7.57;;;3.83;;
42018;SDS011;27703;51.980;5.848;2023-04-06T13:27:22;5.55;;;3.88;;
42018;SDS011;27703;51.980;5.848;2023-04-06T13:29:48;7.72;;;4.78;;
42018;SDS011;27703;51.980;5.848;2023-04-06T13:32:14;8.70;;;3.80;;
42018;SDS011;27703;51.980;5.848;2023-04-06T13:34:39;6.85;;;3.67;;
42018;SDS011;27703;51.980;5.848;2023-04-06T13:37:09;6.93;;;4.35;;
42018;SDS011;27703;51.980;5.848;2023-04-06T13:39:38;7.32;;;5.20;;
42018;SDS011;27703;51.980;5.848;2023-04-06T13:42:03;8.30;;;4.97;;
42018;SDS011;27703;51.980;5.848;2023-04-06T13:44:29;7.57;;;5.07;;
42018;SDS011;27703;51.980;5.848;2023-04-06T13:46:56;8.27;;;5.20;;
42018;SDS011;27703;51.980;5.848;2023-04-06T13:49:21;9.20;;;5.35;;
42018;SDS011;27703;51.980;5.848;2023-04-06T13:51:47;9.27;;;5.78;;
42018;SDS011;27703;51.980;5.848;2023-04-06T13:54:12;9.43;;;5.13;;
42018;SDS011;27703;51.980;5.848;2023-04-06T13:56:38;11.07;;;5.28;;
42018;SDS011;27703;51.980;5.848;2023-04-06T13:59:04;11.88;;;6.15;;
42018;SDS011;27703;51.980;5.848;2023-04-06T14:01:29;11.02;;;5.70;;
42018;SDS011;27703;51.980;5.848;2023-04-06T14:03:55;8.50;;;5.88;;
42018;SDS011;27703;51.980;5.848;2023-04-06T14:06:20;12.70;;;6.60;;
42018;SDS011;27703;51.980;5.848;2023-04-06T14:08:46;10.23;;;6.90;;
42018;SDS011;27703;51.980;5.848;2023-04-06T14:11:12;12.85;;;7.20;;
42018;SDS011;27703;51.980;5.848;2023-04-06T14:13:38;15.45;;;7.80;;
42018;SDS011;27703;51.980;5.848;2023-04-06T14:16:04;11.55;;;7.40;;
42018;SDS011;27703;51.980;5.848;2023-04-06T14:18:30;14.63;;;7.53;;
42018;SDS011;27703;51.980;5.848;2023-04-06T14:20:59;10.68;;;6.95;;
42018;SDS011;27703;51.980;5.848;2023-04-06T14:23:27;15.52;;;8.50;;
42018;SDS011;27703;51.980;5.848;2023-04-06T14:26:03;11.68;;;7.57;;
42018;SDS011;27703;51.980;5.848;2023-04-06T14:28:30;12.68;;;7.50;;
42018;SDS011;27703;51.980;5.848;2023-04-06T14:30:56;8.93;;;6.05;;
42018;SDS011;27703;51.980;5.848;2023-04-06T14:33:23;10.48;;;7.15;;
42018;SDS011;27703;51.980;5.848;2023-04-06T14:35:48;10.75;;;7.45;;
42018;SDS011;27703;51.980;5.848;2023-04-06T14:38:14;12.30;;;7.13;;
42018;SDS011;27703;51.980;5.848;2023-04-06T14:40:40;11.77;;;7.30;;